createdAt,value
2017-11-23T00:01:09.598Z,7.60
2017-11-23T00:03:37.873Z,7.50
2017-11-23T00:06:06.139Z,7.40
2017-11-23T00:08:34.409Z,7.20
2017-11-23T00:11:02.835Z,7.20
2017-11-23T00:13:31.123Z,7.20
2017-11-23T00:15:59.388Z,7.10
2017-11-23T00:18:27.774Z,7.10
2017-11-23T00:20:56.058Z,7.20
2017-11-23T00:23:25.132Z,7.10
2017-11-23T00:25:53.511Z,7.10
2017-11-23T00:28:21.789Z,7.00
2017-11-23T00:30:50.073Z,7.10
2017-11-23T00:33:18.321Z,7.10
2017-11-23T00:35:46.634Z,7.10
2017-11-23T00:38:14.900Z,7.10
2017-11-23T00:40:43.182Z,7.00
2017-11-23T00:43:11.461Z,7.00
2017-11-23T00:45:39.750Z,7.10
2017-11-23T00:48:08.015Z,7.10
2017-11-23T00:50:36.381Z,7.00
2017-11-23T00:53:04.651Z,7.00
2017-11-23T00:55:32.962Z,7.20
2017-11-23T00:58:01.214Z,7.20
2017-11-23T01:00:29.604Z,7.40
2017-11-23T01:02:58.004Z,7.30
2017-11-23T01:05:27.803Z,7.30
2017-11-23T01:07:56.072Z,7.30
2017-11-23T01:10:24.342Z,7.30
2017-11-23T01:12:52.602Z,7.30
2017-11-23T01:15:20.915Z,7.30
2017-11-23T01:17:49.196Z,7.20
2017-11-23T01:20:17.563Z,7.30
2017-11-23T01:22:45.862Z,7.10
2017-11-23T01:25:15.638Z,7.20
2017-11-23T01:27:43.897Z,7.20
2017-11-23T01:30:12.200Z,7.20
2017-11-23T01:32:40.449Z,7.20
2017-11-23T01:35:08.730Z,7.20
2017-11-23T01:37:37.049Z,7.20
2017-11-23T01:40:05.362Z,7.20
2017-11-23T01:42:34.384Z,7.20
2017-11-23T01:45:02.674Z,7.20
2017-11-23T01:47:30.920Z,7.10
2017-11-23T01:49:59.192Z,7.20
2017-11-23T01:52:28.213Z,7.10
2017-11-23T01:54:56.488Z,7.00
2017-11-23T01:57:24.897Z,7.00
2017-11-23T01:59:53.162Z,7.10
2017-11-23T02:02:21.445Z,7.20
2017-11-23T02:04:50.238Z,7.20
2017-11-23T02:07:18.485Z,7.20
2017-11-23T02:09:46.738Z,7.30
2017-11-23T02:12:16.109Z,7.20
2017-11-23T02:14:45.158Z,7.30
2017-11-23T02:17:13.438Z,7.30
2017-11-23T02:19:41.688Z,7.40
2017-11-23T02:22:10.713Z,7.50
2017-11-23T02:24:39.016Z,7.50
2017-11-23T02:27:07.295Z,7.50
2017-11-23T02:29:35.537Z,7.60
2017-11-23T02:32:03.818Z,7.60
2017-11-23T02:34:32.068Z,7.60
2017-11-23T02:37:01.120Z,7.60
2017-11-23T02:39:29.364Z,7.50
2017-11-23T02:41:57.629Z,7.50
2017-11-23T02:44:25.881Z,7.50
2017-11-23T02:46:54.943Z,7.60
2017-11-23T02:49:23.188Z,7.50
2017-11-23T02:51:51.462Z,7.40
2017-11-23T02:54:19.727Z,7.40
2017-11-23T02:56:48.873Z,7.50
2017-11-23T02:59:17.109Z,7.50
2017-11-23T03:01:45.449Z,7.50
2017-11-23T03:04:13.701Z,7.50
2017-11-23T03:06:42.081Z,7.60
2017-11-23T03:09:10.325Z,7.50
2017-11-23T03:11:38.637Z,7.50
2017-11-23T03:14:06.889Z,7.40
2017-11-23T03:16:35.298Z,7.30
2017-11-23T03:19:03.533Z,7.30
2017-11-23T03:21:31.834Z,7.20
2017-11-23T03:24:00.114Z,7.20
2017-11-23T03:26:28.385Z,7.30
2017-11-23T03:28:56.631Z,7.20
2017-11-23T03:31:24.941Z,7.30
2017-11-23T03:33:53.191Z,7.40
2017-11-23T03:36:21.460Z,7.40
2017-11-23T03:38:49.709Z,7.50
2017-11-23T03:41:17.980Z,7.40
2017-11-23T03:43:46.266Z,7.50
2017-11-23T03:46:14.605Z,7.50
2017-11-23T03:48:42.855Z,7.60
2017-11-23T03:51:11.170Z,7.60
2017-11-23T03:53:39.418Z,7.60
2017-11-23T03:56:07.740Z,7.70
2017-11-23T03:58:36.206Z,7.70
2017-11-23T04:01:04.465Z,7.80
2017-11-23T04:03:32.713Z,7.70
2017-11-23T04:06:01.021Z,7.70
2017-11-23T04:08:29.301Z,7.70
2017-11-23T04:10:57.549Z,7.70
2017-11-23T04:13:25.853Z,7.80
2017-11-23T04:15:54.102Z,7.70
2017-11-23T04:18:22.386Z,7.70
2017-11-23T04:20:50.650Z,7.70
2017-11-23T04:23:19.680Z,7.70
2017-11-23T04:25:47.977Z,7.70
2017-11-23T04:28:16.245Z,7.60
2017-11-23T04:30:44.491Z,7.60
2017-11-23T04:33:12.798Z,7.50
2017-11-23T04:35:41.045Z,7.50
2017-11-23T04:38:09.341Z,7.50
2017-11-23T04:40:37.588Z,7.60
2017-11-23T04:43:05.866Z,7.60
2017-11-23T04:45:34.173Z,7.50
2017-11-23T04:48:02.451Z,7.60
2017-11-23T04:50:30.710Z,7.50
2017-11-23T04:52:59.000Z,7.50
2017-11-23T04:55:27.261Z,7.60
2017-11-23T04:57:55.535Z,7.50
2017-11-23T05:00:23.949Z,7.60
2017-11-23T05:02:52.211Z,7.50
2017-11-23T05:05:20.453Z,7.50
2017-11-23T05:07:48.720Z,7.50
2017-11-23T05:10:17.741Z,7.30
2017-11-23T05:12:46.005Z,7.30
2017-11-23T05:17:49.633Z,7.10
2017-11-23T05:20:17.922Z,7.10
2017-11-23T05:22:46.189Z,7.10
2017-11-23T05:25:14.445Z,7.00
2017-11-23T05:27:43.590Z,7.00
2017-11-23T05:30:13.373Z,6.90
2017-11-23T05:32:42.471Z,6.90
2017-11-23T05:35:10.781Z,6.90
2017-11-23T05:37:39.052Z,6.90
2017-11-23T05:40:07.336Z,6.80
2017-11-23T05:42:35.713Z,6.80
2017-11-23T05:45:03.982Z,6.70
2017-11-23T05:47:32.244Z,6.60
2017-11-23T05:50:00.498Z,6.50
2017-11-23T05:52:29.640Z,6.50
2017-11-23T05:54:57.881Z,6.50
2017-11-23T05:57:26.231Z,6.50
2017-11-23T05:59:56.011Z,6.40
2017-11-23T06:02:24.253Z,6.40
2017-11-23T06:04:52.534Z,6.40
2017-11-23T06:07:20.781Z,6.40
2017-11-23T06:09:49.840Z,6.20
2017-11-23T06:12:18.076Z,6.20
2017-11-23T06:14:46.365Z,6.10
2017-11-23T06:17:14.616Z,6.10
2017-11-23T06:19:43.047Z,6.00
2017-11-23T06:22:11.332Z,5.90
2017-11-23T06:24:39.599Z,5.90
2017-11-23T06:27:07.850Z,6.00
2017-11-23T06:29:36.127Z,6.00
2017-11-23T06:32:04.386Z,6.00
2017-11-23T06:34:32.682Z,6.00
2017-11-23T06:37:00.927Z,6.00
2017-11-23T06:39:29.981Z,6.00
2017-11-23T06:41:58.233Z,5.90
2017-11-23T06:44:26.493Z,6.00
2017-11-23T06:46:54.902Z,6.10
2017-11-23T06:49:23.166Z,6.10
2017-11-23T06:51:51.421Z,6.10
2017-11-23T06:54:19.791Z,6.20
2017-11-23T06:56:48.812Z,6.20
2017-11-23T06:59:17.089Z,6.20
2017-11-23T07:01:45.335Z,6.30
2017-11-23T07:04:14.494Z,6.30
2017-11-23T07:06:42.757Z,6.30
2017-11-23T07:09:11.024Z,6.40
2017-11-23T07:11:39.272Z,6.40
2017-11-23T07:14:07.558Z,6.40
2017-11-23T07:16:35.817Z,6.30
2017-11-23T07:19:04.862Z,6.40
2017-11-23T07:21:33.177Z,6.40
2017-11-23T07:24:02.222Z,6.50
2017-11-23T07:26:30.526Z,6.50
2017-11-23T07:29:00.076Z,6.60
2017-11-23T07:31:28.607Z,6.50
2017-11-23T07:33:56.981Z,6.60
2017-11-23T07:36:25.232Z,6.60
2017-11-23T07:38:54.370Z,6.60
2017-11-23T07:41:22.625Z,6.70
2017-11-23T07:43:50.896Z,6.70
2017-11-23T07:46:19.201Z,6.80
2017-11-23T07:48:47.586Z,6.80
2017-11-23T07:51:15.974Z,6.90
2017-11-23T07:53:44.234Z,6.90
2017-11-23T07:56:13.426Z,6.90
2017-11-23T07:58:41.694Z,6.90
2017-11-23T08:01:09.951Z,7.00
2017-11-23T08:03:38.212Z,7.10
2017-11-23T08:06:06.461Z,7.20
2017-11-23T08:08:35.491Z,7.30
2017-11-23T08:11:03.758Z,7.30
2017-11-23T08:13:32.014Z,7.30
2017-11-23T08:16:01.079Z,7.50
2017-11-23T08:18:29.328Z,7.50
2017-11-23T08:20:57.593Z,7.60
2017-11-23T08:23:25.903Z,7.60
2017-11-23T08:25:54.203Z,7.70
2017-11-23T08:28:22.433Z,7.80
2017-11-23T08:30:50.710Z,7.80
2017-11-23T08:33:19.009Z,7.90
2017-11-23T08:35:47.354Z,8.00
2017-11-23T08:38:15.670Z,8.10
2017-11-23T08:40:43.944Z,8.10
2017-11-23T08:43:12.218Z,8.20
2017-11-23T08:45:40.556Z,8.30
2017-11-23T08:48:08.827Z,8.30
2017-11-23T08:50:37.859Z,8.40
2017-11-23T08:53:06.109Z,8.50
2017-11-23T08:55:34.384Z,8.40
2017-11-23T08:58:02.665Z,8.50
2017-11-23T09:00:30.978Z,8.50
2017-11-23T09:03:13.821Z,8.60
2017-11-23T09:05:44.921Z,8.60
2017-11-23T09:08:13.170Z,8.70
2017-11-23T09:10:41.477Z,8.80
2017-11-23T09:13:09.729Z,8.80
2017-11-23T09:15:38.000Z,8.90
2017-11-23T09:18:06.249Z,9.10
2017-11-23T09:20:34.526Z,9.00
2017-11-23T09:23:02.802Z,9.10
2017-11-23T09:25:31.167Z,9.10
2017-11-23T09:27:59.435Z,9.10
2017-11-23T09:30:27.713Z,9.30
2017-11-23T09:32:55.987Z,9.30
2017-11-23T09:35:24.368Z,9.30
2017-11-23T09:37:52.644Z,9.40
2017-11-23T09:40:21.017Z,9.50
2017-11-23T09:42:49.276Z,9.60
2017-11-23T09:45:17.549Z,9.60
2017-11-23T09:47:45.802Z,9.80
2017-11-23T09:50:15.059Z,9.90
2017-11-23T09:52:43.301Z,9.90
2017-11-23T09:55:11.587Z,10.00
2017-11-23T09:57:39.881Z,10.00
2017-11-23T10:00:08.158Z,10.00
2017-11-23T10:02:36.427Z,10.00
2017-11-23T10:05:04.701Z,10.00
2017-11-23T10:07:32.960Z,10.10
2017-11-23T10:10:01.395Z,10.20
2017-11-23T10:12:29.649Z,10.20
2017-11-23T10:14:58.023Z,10.30
2017-11-23T10:17:26.285Z,10.40
2017-11-23T10:19:54.566Z,10.50
2017-11-23T10:22:22.853Z,10.50
2017-11-23T10:24:51.145Z,10.70
2017-11-23T10:27:19.393Z,10.80
2017-11-23T10:29:47.669Z,11.00
2017-11-23T10:32:15.931Z,11.20
2017-11-23T10:34:44.206Z,11.30
2017-11-23T10:37:13.238Z,11.60
2017-11-23T10:39:41.517Z,11.50
2017-11-23T10:42:09.774Z,11.50
2017-11-23T10:44:38.173Z,11.60
2017-11-23T10:47:06.425Z,11.70
2017-11-23T10:49:34.701Z,11.70
2017-11-23T10:52:02.953Z,11.80
2017-11-23T10:54:31.232Z,11.80
2017-11-23T10:56:59.512Z,11.80
2017-11-23T10:59:27.829Z,11.70
2017-11-23T11:01:56.091Z,11.70
2017-11-23T11:04:24.365Z,11.80
2017-11-23T11:06:52.666Z,11.80
2017-11-23T11:09:20.949Z,11.80
2017-11-23T11:11:49.363Z,11.90
2017-11-23T11:14:18.373Z,11.80
2017-11-23T11:16:46.657Z,11.80
2017-11-23T11:19:14.976Z,11.90
2017-11-23T11:21:43.341Z,11.70
2017-11-23T11:24:11.599Z,11.80
2017-11-23T11:26:39.877Z,11.70
2017-11-23T11:29:08.129Z,11.80
2017-11-23T11:31:37.274Z,11.70
2017-11-23T11:34:05.536Z,11.70
2017-11-23T11:36:33.941Z,11.70
2017-11-23T11:39:02.184Z,11.70
2017-11-23T11:41:30.461Z,11.80
2017-11-23T11:43:58.742Z,11.70
2017-11-23T11:46:27.021Z,11.70
2017-11-23T11:48:55.274Z,11.70
2017-11-23T11:51:23.549Z,11.80
2017-11-23T11:53:51.813Z,11.80
2017-11-23T11:56:20.854Z,11.90
2017-11-23T11:58:49.113Z,11.90
2017-11-23T12:01:17.394Z,11.90
2017-11-23T12:03:45.647Z,11.90
2017-11-23T12:06:14.792Z,12.00
2017-11-23T12:08:43.177Z,12.00
2017-11-23T12:11:11.437Z,12.00
2017-11-23T12:13:39.693Z,12.10
2017-11-23T12:16:19.996Z,12.10
2017-11-23T12:19:00.133Z,12.10
2017-11-23T12:21:40.316Z,12.10
2017-11-23T12:24:11.426Z,12.10
2017-11-23T12:26:39.726Z,12.10
2017-11-23T12:29:19.771Z,12.10
2017-11-23T12:31:48.041Z,12.10
2017-11-23T12:34:16.310Z,12.10
2017-11-23T12:36:44.592Z,12.10
2017-11-23T12:39:12.850Z,12.10
2017-11-23T12:41:41.156Z,12.10
2017-11-23T12:44:09.407Z,12.10
2017-11-23T12:46:37.708Z,12.20
2017-11-23T12:49:05.978Z,12.10
2017-11-23T12:51:34.241Z,12.10
2017-11-23T12:54:02.537Z,12.10
2017-11-23T12:56:30.905Z,12.20
2017-11-23T12:58:59.199Z,12.20
2017-11-23T13:01:27.475Z,12.20
2017-11-23T13:03:55.725Z,12.20
2017-11-23T13:06:24.026Z,12.20
2017-11-23T13:08:52.290Z,12.20
2017-11-23T13:11:20.564Z,12.20
2017-11-23T13:13:48.851Z,12.20
2017-11-23T13:16:17.124Z,12.20
2017-11-23T13:18:45.376Z,12.20
2017-11-23T13:21:13.696Z,12.30
2017-11-23T13:23:42.770Z,12.30
2017-11-23T13:26:11.125Z,12.30
2017-11-23T13:28:39.422Z,12.30
2017-11-23T13:31:07.717Z,12.20
2017-11-23T13:33:35.969Z,12.30
2017-11-23T13:36:04.342Z,12.30
2017-11-23T13:38:32.719Z,12.30
2017-11-23T13:41:00.997Z,12.30
2017-11-23T13:43:29.248Z,12.30
2017-11-23T13:45:57.537Z,12.30
2017-11-23T13:48:25.799Z,12.30
2017-11-23T13:50:54.073Z,12.40
2017-11-23T13:53:22.378Z,12.40
2017-11-23T13:55:50.748Z,12.40
2017-11-23T13:58:19.013Z,12.40
2017-11-23T14:00:47.307Z,12.40
2017-11-23T14:03:15.598Z,12.40
2017-11-23T14:05:45.377Z,12.40
2017-11-23T14:08:13.640Z,12.40
2017-11-23T14:10:41.925Z,12.50
2017-11-23T14:13:10.176Z,12.50
2017-11-23T14:15:38.464Z,12.50
2017-11-23T14:18:07.497Z,12.80
2017-11-23T14:20:35.766Z,12.70
2017-11-23T14:23:04.026Z,13.00
2017-11-23T14:25:32.297Z,13.40
2017-11-23T14:28:00.559Z,14.00
2017-11-23T14:30:29.592Z,15.60
2017-11-23T14:32:57.862Z,15.60
2017-11-23T14:35:26.158Z,16.30
2017-11-23T14:37:54.408Z,16.60
2017-11-23T14:40:22.693Z,16.60
2017-11-23T14:42:50.958Z,16.80
2017-11-23T14:45:19.237Z,17.00
2017-11-23T14:47:47.540Z,16.80
2017-11-23T14:50:15.910Z,16.30
2017-11-23T14:52:44.184Z,15.90
2017-11-23T14:55:12.576Z,15.50
2017-11-23T14:57:40.952Z,15.20
2017-11-23T15:00:09.203Z,14.80
2017-11-23T15:02:37.485Z,14.40
2017-11-23T15:05:05.760Z,14.10
2017-11-23T15:07:34.053Z,13.80
2017-11-23T15:10:02.314Z,13.50
2017-11-23T15:12:30.601Z,13.20
2017-11-23T15:14:58.857Z,13.10
2017-11-23T15:17:27.129Z,12.90
2017-11-23T15:19:55.393Z,12.80
2017-11-23T15:22:24.433Z,12.50
2017-11-23T15:24:52.687Z,12.50
2017-11-23T15:27:20.990Z,12.50
2017-11-23T15:29:49.263Z,12.40
2017-11-23T15:32:17.550Z,12.30
2017-11-23T15:34:45.802Z,12.30
2017-11-23T15:37:14.081Z,12.30
2017-11-23T15:39:42.352Z,12.20
2017-11-23T15:42:10.635Z,12.10
2017-11-23T15:44:38.934Z,12.00
2017-11-23T15:47:07.236Z,12.00
2017-11-23T15:49:35.515Z,12.00
2017-11-23T15:52:03.785Z,12.00
2017-11-23T15:54:32.053Z,12.00
2017-11-23T15:57:00.409Z,12.00
2017-11-23T15:59:28.705Z,12.00
2017-11-23T16:01:57.070Z,12.00
2017-11-23T16:04:25.341Z,12.00
2017-11-23T16:06:53.725Z,12.00
2017-11-23T16:09:22.010Z,11.90
2017-11-23T16:11:50.290Z,12.00
2017-11-23T16:14:18.543Z,12.00
2017-11-23T16:16:46.824Z,12.00
2017-11-23T16:19:15.078Z,12.00
2017-11-23T16:21:43.359Z,12.00
2017-11-23T16:24:11.644Z,12.00
2017-11-23T16:26:39.958Z,12.00
2017-11-23T16:29:08.205Z,12.00
2017-11-23T16:31:36.513Z,12.20
2017-11-23T16:34:04.770Z,12.20
2017-11-23T16:36:33.995Z,12.20
2017-11-23T16:39:07.641Z,12.30
2017-11-23T16:41:41.606Z,12.30
2017-11-23T16:44:15.485Z,12.30
2017-11-23T16:46:52.439Z,12.30
2017-11-23T16:49:26.252Z,12.30
2017-11-23T16:52:00.278Z,12.20
2017-11-23T16:54:34.291Z,12.20
2017-11-23T16:57:08.269Z,12.20
2017-11-23T17:02:57.565Z,12.10
2017-11-23T17:05:30.269Z,12.10
2017-11-23T17:08:04.213Z,12.10
2017-11-23T17:10:38.991Z,12.00
2017-11-23T17:13:12.939Z,12.00
2017-11-23T17:15:41.970Z,12.00
2017-11-23T17:18:16.777Z,11.90
2017-11-23T17:20:45.017Z,11.90
2017-11-23T17:23:13.290Z,11.90
2017-11-23T17:25:41.601Z,11.90
2017-11-23T17:28:09.882Z,11.90
2017-11-23T17:30:38.165Z,12.00
2017-11-23T17:33:06.442Z,12.00
2017-11-23T17:35:34.821Z,12.10
2017-11-23T17:38:03.298Z,12.20
2017-11-23T17:40:31.565Z,12.20
2017-11-23T17:42:59.947Z,12.20
2017-11-23T17:45:28.319Z,12.20
2017-11-23T17:47:56.586Z,12.20
2017-11-23T17:50:24.841Z,12.20
2017-11-23T17:52:53.903Z,12.20
2017-11-23T17:55:22.152Z,12.20
2017-11-23T17:57:50.422Z,12.20
2017-11-23T18:00:18.685Z,12.20
2017-11-23T18:02:47.025Z,12.30
2017-11-23T18:05:16.083Z,12.30
2017-11-23T18:07:44.346Z,12.30
2017-11-23T18:10:12.618Z,12.30
2017-11-23T18:12:40.905Z,12.30
2017-11-23T18:15:09.157Z,12.30
2017-11-23T18:17:37.437Z,12.30
2017-11-23T18:20:05.700Z,12.30
2017-11-23T18:22:34.741Z,12.20
2017-11-23T18:25:03.001Z,12.20
2017-11-23T18:27:31.264Z,12.20
2017-11-23T18:29:59.584Z,12.10
2017-11-23T18:32:27.849Z,12.20
2017-11-23T18:34:56.121Z,12.20
2017-11-23T18:37:24.393Z,12.20
2017-11-23T18:39:52.661Z,12.20
2017-11-23T18:42:20.929Z,12.20
2017-11-23T18:44:49.879Z,12.20
2017-11-23T18:47:18.133Z,12.20
2017-11-23T18:49:46.521Z,12.20
2017-11-23T18:52:14.897Z,12.20
2017-11-23T18:54:43.159Z,12.10
2017-11-23T18:57:11.431Z,12.10
2017-11-23T18:59:39.752Z,12.10
2017-11-23T19:02:09.050Z,12.10
2017-11-23T19:04:37.325Z,12.00
2017-11-23T19:07:05.579Z,12.00
2017-11-23T19:09:33.851Z,11.90
2017-11-23T19:12:02.111Z,11.80
2017-11-23T19:14:30.384Z,11.80
2017-11-23T19:16:58.635Z,11.80
2017-11-23T19:19:27.686Z,11.70
2017-11-23T19:21:55.948Z,11.70
2017-11-23T19:24:24.240Z,11.70
2017-11-23T19:26:52.523Z,11.60
2017-11-23T19:29:20.801Z,11.60
2017-11-23T19:31:49.057Z,11.60
2017-11-23T19:34:17.337Z,11.60
2017-11-23T19:36:45.596Z,11.50
2017-11-23T19:39:13.875Z,11.50
2017-11-23T19:41:43.566Z,11.50
2017-11-23T19:44:11.850Z,11.40
2017-11-23T19:46:40.114Z,11.40
2017-11-23T19:49:08.385Z,11.40
2017-11-23T19:51:36.685Z,11.30
2017-11-23T19:54:04.998Z,11.40
2017-11-23T19:56:33.258Z,11.30
2017-11-23T19:59:01.530Z,11.30
2017-11-23T20:01:29.942Z,11.30
2017-11-23T20:03:58.218Z,11.30
2017-11-23T20:06:26.488Z,11.40
2017-11-23T20:08:56.301Z,11.40
2017-11-23T20:11:24.662Z,11.40
2017-11-23T20:13:52.941Z,11.40
2017-11-23T20:16:21.239Z,11.50
2017-11-23T20:18:49.504Z,11.50
2017-11-23T20:21:17.875Z,11.50
2017-11-23T20:23:46.148Z,11.50
2017-11-23T20:26:14.426Z,11.50
2017-11-23T20:28:42.722Z,11.50
2017-11-23T20:31:10.984Z,11.60
2017-11-23T20:33:39.274Z,11.60
2017-11-23T20:36:07.525Z,11.70
2017-11-23T20:38:35.813Z,11.70
2017-11-23T20:41:04.086Z,11.70
2017-11-23T20:43:32.378Z,11.70
2017-11-23T20:46:00.751Z,11.70
2017-11-23T20:48:29.027Z,11.70
2017-11-23T20:50:57.309Z,11.80
2017-11-23T20:53:25.569Z,11.80
2017-11-23T20:55:53.831Z,11.80
2017-11-23T20:58:22.090Z,11.90
2017-11-23T21:00:50.400Z,11.90
2017-11-23T21:03:18.661Z,12.00
2017-11-23T21:05:46.945Z,12.00
2017-11-23T21:08:15.216Z,12.00
2017-11-23T21:10:43.496Z,12.10
2017-11-23T21:13:11.758Z,12.10
2017-11-23T21:15:40.036Z,12.10
2017-11-23T21:18:08.322Z,12.10
2017-11-23T21:20:36.628Z,12.10
2017-11-23T21:23:04.889Z,12.20
2017-11-23T21:25:33.163Z,12.20
2017-11-23T21:28:01.433Z,12.30
2017-11-23T21:30:29.745Z,12.30
2017-11-23T21:32:58.007Z,12.30
2017-11-23T21:35:26.279Z,12.30
2017-11-23T21:37:54.544Z,12.40
2017-11-23T21:40:22.825Z,12.40
2017-11-23T21:42:51.121Z,12.40
2017-11-23T21:45:19.493Z,12.50
2017-11-23T21:47:47.773Z,12.50
2017-11-23T21:50:16.063Z,12.60
2017-11-23T21:52:44.322Z,12.60
2017-11-23T21:55:12.593Z,12.70
2017-11-23T21:57:40.885Z,12.70
2017-11-23T22:00:09.224Z,12.70
2017-11-23T22:02:37.536Z,12.70
2017-11-23T22:05:05.819Z,12.70
2017-11-23T22:07:34.103Z,12.70
2017-11-23T22:10:02.370Z,12.60
2017-11-23T22:12:30.642Z,12.60
2017-11-23T22:14:58.960Z,12.60
2017-11-23T22:17:27.973Z,12.60
2017-11-23T22:19:56.304Z,12.60
2017-11-23T22:22:24.549Z,12.60
2017-11-23T22:24:52.821Z,12.60
2017-11-23T22:27:21.100Z,12.60
2017-11-23T22:29:49.394Z,12.60
2017-11-23T22:32:17.646Z,12.70
2017-11-23T22:34:45.954Z,12.70
2017-11-23T22:37:14.224Z,12.70
2017-11-23T22:39:42.597Z,12.70
2017-11-23T22:42:10.858Z,12.80
2017-11-23T22:44:39.164Z,12.80
2017-11-23T22:47:07.448Z,12.80
2017-11-23T22:49:35.925Z,12.80
2017-11-23T22:52:04.192Z,12.90
2017-11-23T22:54:33.193Z,12.90
2017-11-23T22:57:01.469Z,12.90
2017-11-23T22:59:29.725Z,12.90
2017-11-23T23:01:58.002Z,12.90
2017-11-23T23:04:26.253Z,12.90
2017-11-23T23:06:55.674Z,13.00
2017-11-23T23:09:23.999Z,13.00
2017-11-23T23:11:52.472Z,13.00
2017-11-23T23:14:20.720Z,13.00
2017-11-23T23:16:48.997Z,13.00
2017-11-23T23:19:17.253Z,12.90
2017-11-23T23:21:45.574Z,12.90
2017-11-23T23:24:13.845Z,13.00
2017-11-23T23:26:42.101Z,13.00
2017-11-23T23:29:10.353Z,13.00
2017-11-23T23:31:39.398Z,13.00
2017-11-23T23:34:07.654Z,13.00
2017-11-23T23:36:35.925Z,13.00
2017-11-23T23:39:04.186Z,13.00
2017-11-23T23:41:32.459Z,13.00
2017-11-23T23:44:00.718Z,13.00
2017-11-23T23:46:29.765Z,13.00
2017-11-23T23:48:58.019Z,12.90
2017-11-23T23:51:26.338Z,13.00
2017-11-23T23:53:54.597Z,13.00
2017-11-23T23:56:22.874Z,13.00
2017-11-23T23:58:51.149Z,13.00
